createdAt,value
2022-10-09T00:00:00.766Z,10.60
2022-10-09T00:02:03.280Z,11.95
2022-10-09T00:04:06.406Z,9.52
2022-10-09T00:06:11.261Z,11.68
2022-10-09T00:08:13.954Z,9.43
2022-10-09T00:10:16.474Z,12.40
2022-10-09T00:12:18.984Z,10.15
2022-10-09T00:14:21.512Z,10.90
2022-10-09T00:16:25.108Z,8.45
2022-10-09T00:18:27.675Z,10.95
2022-10-09T00:20:30.304Z,10.95
2022-10-09T00:22:32.984Z,13.18
2022-10-09T00:24:35.592Z,8.98
2022-10-09T00:26:37.972Z,15.30
2022-10-09T00:28:40.669Z,11.45
2022-10-09T00:30:44.186Z,6.85
2022-10-09T00:32:47.780Z,14.52
2022-10-09T00:34:51.862Z,10.65
2022-10-09T00:36:54.324Z,11.07
2022-10-09T00:38:57.482Z,10.73
2022-10-09T00:41:00.002Z,11.07
2022-10-09T00:43:02.853Z,13.32
2022-10-09T00:45:05.823Z,9.75
2022-10-09T00:47:19.413Z,11.80
2022-10-09T00:49:29.333Z,6.68
2022-10-09T00:51:33.354Z,13.15
2022-10-09T00:53:36.067Z,15.20
2022-10-09T00:55:40.154Z,9.85
2022-10-09T00:57:43.936Z,10.10
2022-10-09T00:59:46.633Z,13.13
2022-10-09T01:01:49.182Z,7.63
2022-10-09T01:03:51.945Z,9.73
2022-10-09T01:06:10.963Z,12.13
2022-10-09T01:08:25.903Z,14.35
2022-10-09T01:10:33.046Z,13.25
2022-10-09T01:12:50.952Z,14.30
2022-10-09T01:15:08.302Z,14.80
2022-10-09T01:17:48.923Z,11.45
2022-10-09T01:20:24.633Z,12.07
2022-10-09T01:23:04.223Z,7.30
2022-10-09T01:25:09.874Z,9.15
2022-10-09T01:27:24.217Z,10.15
2022-10-09T01:29:33.245Z,11.10
2022-10-09T01:31:40.685Z,15.07
2022-10-09T01:33:44.166Z,10.43
2022-10-09T01:35:47.973Z,15.40
2022-10-09T01:37:52.872Z,15.57
2022-10-09T01:39:56.685Z,11.65
2022-10-09T01:41:59.662Z,10.35
2022-10-09T01:44:02.273Z,14.30
2022-10-09T01:46:26.781Z,11.00
2022-10-09T01:48:29.855Z,8.20
2022-10-09T01:50:36.634Z,8.25
2022-10-09T01:52:52.349Z,10.90
2022-10-09T01:55:25.593Z,10.80
2022-10-09T01:57:37.735Z,10.75
2022-10-09T01:59:44.891Z,6.47
2022-10-09T02:01:47.963Z,7.40
2022-10-09T02:03:52.458Z,13.40
2022-10-09T02:05:56.972Z,10.60
2022-10-09T02:08:00.562Z,19.20
2022-10-09T02:10:04.744Z,6.13
2022-10-09T02:12:10.516Z,12.10
2022-10-09T02:14:13.104Z,11.13
2022-10-09T02:16:24.053Z,16.67
2022-10-09T02:18:40.593Z,12.93
2022-10-09T02:20:48.795Z,13.38
2022-10-09T02:22:53.150Z,10.98
2022-10-09T02:24:57.345Z,13.48
2022-10-09T02:27:01.171Z,11.57
2022-10-09T02:29:05.103Z,10.40
2022-10-09T02:31:25.338Z,10.40
2022-10-09T02:33:33.052Z,8.85
2022-10-09T02:35:36.712Z,17.08
2022-10-09T02:37:39.243Z,10.90
2022-10-09T02:39:42.473Z,11.40
2022-10-09T02:41:44.982Z,11.30
2022-10-09T02:43:48.324Z,8.48
2022-10-09T02:45:50.715Z,12.10
2022-10-09T02:47:53.306Z,8.75
2022-10-09T02:49:57.173Z,12.35
2022-10-09T02:51:59.783Z,9.32
2022-10-09T02:54:02.523Z,9.57
2022-10-09T02:56:05.152Z,9.20
2022-10-09T02:58:08.735Z,6.45
2022-10-09T03:00:12.074Z,10.13
2022-10-09T03:02:14.685Z,12.25
2022-10-09T03:04:17.412Z,8.30
2022-10-09T03:06:22.903Z,10.38
2022-10-09T03:08:25.576Z,14.30
2022-10-09T03:10:28.253Z,26.40
2022-10-09T03:12:30.863Z,10.55
2022-10-09T03:14:33.453Z,11.40
2022-10-09T03:16:36.261Z,14.10
2022-10-09T03:18:39.324Z,8.88
2022-10-09T03:20:41.875Z,14.32
2022-10-09T03:22:44.445Z,10.57
2022-10-09T03:24:47.004Z,23.98
2022-10-09T03:26:49.364Z,8.43
2022-10-09T03:28:53.368Z,11.23
2022-10-09T03:30:56.390Z,7.07
2022-10-09T03:32:58.796Z,19.80
2022-10-09T03:35:01.324Z,12.82
2022-10-09T03:37:03.873Z,16.15
2022-10-09T03:39:06.513Z,11.73
2022-10-09T03:41:09.544Z,8.57
2022-10-09T03:43:12.381Z,9.38
2022-10-09T03:45:15.032Z,8.57
2022-10-09T03:47:17.953Z,8.48
2022-10-09T03:49:20.874Z,12.73
2022-10-09T03:51:23.243Z,11.30
2022-10-09T03:53:26.061Z,7.80
2022-10-09T03:55:28.807Z,7.85
2022-10-09T03:57:31.655Z,9.27
2022-10-09T03:59:34.215Z,9.77
2022-10-09T04:01:36.963Z,15.50
2022-10-09T04:03:39.485Z,12.10
2022-10-09T04:05:42.084Z,9.50
2022-10-09T04:07:44.644Z,6.57
2022-10-09T04:09:47.574Z,10.95
2022-10-09T04:11:49.882Z,10.50
2022-10-09T04:13:52.362Z,11.02
2022-10-09T04:15:57.298Z,12.95
2022-10-09T04:17:59.733Z,10.38
2022-10-09T04:20:02.985Z,10.10
2022-10-09T04:22:05.891Z,10.10
2022-10-09T04:24:09.342Z,11.77
2022-10-09T04:26:13.932Z,13.98
2022-10-09T04:28:16.437Z,17.73
2022-10-09T04:30:19.265Z,15.02
2022-10-09T04:32:21.805Z,13.85
2022-10-09T04:34:24.464Z,13.88
2022-10-09T04:36:27.264Z,16.00
2022-10-09T04:38:31.884Z,8.32
2022-10-09T04:40:34.481Z,16.88
2022-10-09T04:42:37.094Z,10.60
2022-10-09T04:44:40.003Z,9.95
2022-10-09T04:46:42.793Z,10.38
2022-10-09T04:48:46.994Z,16.73
2022-10-09T04:50:50.004Z,11.93
2022-10-09T04:52:52.676Z,10.15
2022-10-09T04:54:55.325Z,13.82
2022-10-09T04:56:58.033Z,10.00
2022-10-09T04:59:00.703Z,6.90
2022-10-09T05:01:24.720Z,17.83
2022-10-09T05:03:27.298Z,12.95
2022-10-09T05:05:29.885Z,10.30
2022-10-09T05:07:32.814Z,12.27
2022-10-09T05:09:35.315Z,14.40
2022-10-09T05:11:42.360Z,12.07
2022-10-09T05:13:48.434Z,8.98
2022-10-09T05:15:51.273Z,16.05
2022-10-09T05:17:54.074Z,12.55
2022-10-09T05:19:56.805Z,13.07
2022-10-09T05:22:00.716Z,11.20
2022-10-09T05:24:07.125Z,8.90
2022-10-09T05:26:19.387Z,12.40
2022-10-09T05:28:22.441Z,20.20
2022-10-09T05:30:25.026Z,23.92
2022-10-09T05:32:27.404Z,11.43
2022-10-09T05:34:30.077Z,20.60
2022-10-09T05:36:32.584Z,15.10
2022-10-09T05:38:35.476Z,13.85
2022-10-09T05:40:38.072Z,25.23
2022-10-09T05:42:40.655Z,19.48
2022-10-09T05:44:43.055Z,13.63
2022-10-09T05:46:45.882Z,11.82
2022-10-09T05:48:57.204Z,17.40
2022-10-09T05:51:20.796Z,11.20
2022-10-09T05:53:23.469Z,8.20
2022-10-09T05:55:27.805Z,12.95
2022-10-09T05:57:30.414Z,11.75
2022-10-09T05:59:32.873Z,11.20
2022-10-09T06:01:39.924Z,7.43
2022-10-09T06:03:46.613Z,14.38
2022-10-09T06:05:49.425Z,17.85
2022-10-09T06:07:53.214Z,11.77
2022-10-09T06:09:56.451Z,8.38
2022-10-09T06:11:59.636Z,9.18
2022-10-09T06:14:04.475Z,10.43
2022-10-09T06:16:06.993Z,6.30
2022-10-09T06:18:09.693Z,16.90
2022-10-09T06:20:12.167Z,9.50
2022-10-09T06:22:15.985Z,10.38
2022-10-09T06:24:28.206Z,13.77
2022-10-09T06:26:32.629Z,12.23
2022-10-09T06:28:35.769Z,8.73
2022-10-09T06:30:39.022Z,9.48
2022-10-09T06:32:41.953Z,11.27
2022-10-09T06:34:46.075Z,7.18
2022-10-09T06:36:49.304Z,7.47
2022-10-09T06:38:52.921Z,13.25
2022-10-09T06:40:55.444Z,11.20
2022-10-09T06:42:58.345Z,13.57
2022-10-09T06:45:00.985Z,9.30
2022-10-09T06:47:03.687Z,13.10
2022-10-09T06:49:07.685Z,6.45
2022-10-09T06:51:16.304Z,9.57
2022-10-09T06:53:19.314Z,10.07
2022-10-09T06:55:26.460Z,12.65
2022-10-09T06:57:31.334Z,11.35
2022-10-09T06:59:33.743Z,8.60
2022-10-09T07:01:36.221Z,7.80
2022-10-09T07:03:40.626Z,13.82
2022-10-09T07:05:43.154Z,8.60
2022-10-09T07:07:45.734Z,10.50
2022-10-09T07:09:49.123Z,9.52
2022-10-09T07:11:52.174Z,18.73
2022-10-09T07:13:57.897Z,10.30
2022-10-09T07:16:04.549Z,15.90
2022-10-09T07:18:07.624Z,9.48
2022-10-09T07:20:10.594Z,12.68
2022-10-09T07:22:13.874Z,12.10
2022-10-09T07:24:17.824Z,11.35
2022-10-09T07:26:26.212Z,11.57
2022-10-09T07:28:30.515Z,13.20
2022-10-09T07:30:32.961Z,6.78
2022-10-09T07:32:35.523Z,6.00
2022-10-09T07:34:37.895Z,14.07
2022-10-09T07:36:40.426Z,9.40
2022-10-09T07:38:43.352Z,9.70
2022-10-09T07:40:46.674Z,9.63
2022-10-09T07:42:49.560Z,10.65
2022-10-09T07:44:52.493Z,6.88
2022-10-09T07:46:55.824Z,11.65
2022-10-09T07:48:58.554Z,11.38
2022-10-09T07:51:18.654Z,7.75
2022-10-09T07:53:21.274Z,13.43
2022-10-09T07:55:24.044Z,10.10
2022-10-09T07:57:26.602Z,15.23
2022-10-09T07:59:29.036Z,8.70
2022-10-09T08:01:33.328Z,20.55
2022-10-09T08:03:36.954Z,11.88
2022-10-09T08:05:39.684Z,18.38
2022-10-09T08:07:42.303Z,17.85
2022-10-09T08:09:44.863Z,15.77
2022-10-09T08:11:47.391Z,9.25
2022-10-09T08:13:51.056Z,15.20
2022-10-09T08:15:53.653Z,12.73
2022-10-09T08:17:56.352Z,11.63
2022-10-09T08:19:59.116Z,11.68
2022-10-09T08:22:03.556Z,8.70
2022-10-09T08:24:06.643Z,12.77
2022-10-09T08:26:16.302Z,10.05
2022-10-09T08:28:19.786Z,11.70
2022-10-09T08:30:22.414Z,9.50
2022-10-09T08:32:37.456Z,5.60
2022-10-09T08:34:40.804Z,10.35
2022-10-09T08:36:43.379Z,8.45
2022-10-09T08:38:47.615Z,14.85
2022-10-09T08:40:58.662Z,8.48
2022-10-09T08:43:07.645Z,14.32
2022-10-09T08:45:17.335Z,7.95
2022-10-09T08:47:45.977Z,13.13
2022-10-09T08:49:57.876Z,7.20
2022-10-09T08:52:12.882Z,10.20
2022-10-09T08:54:41.902Z,8.75
2022-10-09T08:56:44.563Z,7.97
2022-10-09T08:58:47.114Z,6.97
2022-10-09T09:00:50.894Z,6.57
2022-10-09T09:03:29.865Z,6.93
2022-10-09T09:05:50.373Z,5.13
2022-10-09T09:08:17.554Z,8.40
2022-10-09T09:10:30.604Z,6.43
2022-10-09T09:12:55.461Z,5.60
2022-10-09T09:15:35.524Z,8.57
2022-10-09T09:18:04.518Z,4.25
2022-10-09T09:20:10.135Z,13.73
2022-10-09T09:22:15.752Z,11.43
2022-10-09T09:24:44.313Z,4.13
2022-10-09T09:26:51.173Z,9.98
2022-10-09T09:28:59.196Z,10.48
2022-10-09T09:31:09.170Z,6.15
2022-10-09T09:33:21.734Z,12.77
2022-10-09T09:36:01.104Z,6.05
2022-10-09T09:38:03.724Z,12.13
2022-10-09T09:42:34.774Z,12.63
2022-10-09T09:44:42.213Z,5.35
2022-10-09T09:46:47.944Z,9.85
2022-10-09T09:48:50.922Z,8.05
2022-10-09T09:51:10.304Z,7.60
2022-10-09T09:53:44.597Z,9.45
2022-10-09T09:55:51.743Z,7.13
2022-10-09T09:58:16.241Z,6.93
2022-10-09T10:00:22.494Z,9.52
2022-10-09T10:02:27.307Z,7.60
2022-10-09T10:04:29.837Z,5.60
2022-10-09T10:06:35.462Z,6.63
2022-10-09T10:08:37.982Z,5.38
2022-10-09T10:10:46.074Z,4.88
2022-10-09T10:12:58.275Z,4.32
2022-10-09T10:15:01.374Z,11.85
2022-10-09T10:17:03.938Z,5.43
2022-10-09T10:19:07.215Z,6.28
2022-10-09T10:21:16.625Z,3.08
2022-10-09T10:23:53.164Z,8.57
2022-10-09T10:25:58.644Z,4.40
2022-10-09T10:28:25.058Z,9.60
2022-10-09T10:30:28.064Z,3.85
2022-10-09T10:32:44.524Z,4.72
2022-10-09T10:34:53.231Z,7.05
2022-10-09T10:37:13.513Z,4.03
2022-10-09T10:39:26.845Z,7.18
2022-10-09T10:41:38.124Z,11.40
2022-10-09T10:43:51.794Z,4.10
2022-10-09T10:46:01.346Z,6.05
2022-10-09T10:48:05.652Z,12.30
2022-10-09T10:50:14.864Z,5.10
2022-10-09T10:52:29.085Z,5.80
2022-10-09T10:54:48.294Z,6.82
2022-10-09T10:57:19.365Z,2.28
2022-10-09T10:59:36.662Z,6.97
2022-10-09T11:02:07.804Z,5.93
2022-10-09T11:04:29.402Z,3.95
2022-10-09T11:07:00.495Z,3.42
2022-10-09T11:09:24.263Z,5.28
2022-10-09T11:11:42.584Z,2.45
2022-10-09T11:14:01.864Z,6.95
2022-10-09T11:16:22.212Z,4.57
2022-10-09T11:19:06.161Z,5.47
2022-10-09T11:21:30.982Z,9.10
2022-10-09T11:23:48.964Z,8.43
2022-10-09T11:26:24.814Z,6.47
2022-10-09T11:28:40.919Z,7.32
2022-10-09T11:31:06.069Z,6.53
2022-10-09T11:33:19.852Z,6.97
2022-10-09T11:35:24.945Z,8.35
2022-10-09T11:37:35.483Z,4.28
2022-10-09T11:39:39.914Z,6.80
2022-10-09T11:41:46.253Z,7.45
2022-10-09T11:44:21.165Z,4.97
2022-10-09T11:46:51.954Z,4.50
2022-10-09T11:49:16.363Z,9.32
2022-10-09T11:51:42.196Z,6.88
2022-10-09T11:53:46.303Z,7.53
2022-10-09T11:55:48.861Z,4.55
2022-10-09T11:57:51.705Z,6.25
2022-10-09T12:00:07.255Z,3.92
2022-10-09T12:02:26.842Z,6.70
2022-10-09T12:04:53.955Z,8.48
2022-10-09T12:07:07.613Z,4.50
2022-10-09T12:09:10.704Z,9.68
2022-10-09T12:11:18.292Z,7.15
2022-10-09T12:13:42.572Z,1.65
2022-10-09T12:15:50.954Z,5.22
2022-10-09T12:17:53.761Z,2.63
2022-10-09T12:20:09.264Z,6.15
2022-10-09T12:22:20.223Z,4.65
2022-10-09T12:24:49.403Z,3.05
2022-10-09T12:26:55.084Z,6.18
2022-10-09T12:29:01.902Z,8.30
2022-10-09T12:31:13.807Z,8.75
2022-10-09T12:33:27.551Z,3.17
2022-10-09T12:35:40.542Z,2.30
2022-10-09T12:37:43.182Z,4.75
2022-10-09T12:39:47.676Z,5.28
2022-10-09T12:41:56.292Z,5.22
2022-10-09T12:44:00.163Z,3.00
2022-10-09T12:46:03.218Z,7.10
2022-10-09T12:48:12.788Z,5.00
2022-10-09T12:50:26.513Z,1.67
2022-10-09T12:52:31.345Z,4.13
2022-10-09T12:54:33.883Z,4.68
2022-10-09T12:56:39.232Z,4.07
2022-10-09T12:58:44.024Z,5.55
2022-10-09T13:00:55.376Z,3.10
2022-10-09T13:02:58.235Z,2.73
2022-10-09T13:05:02.678Z,5.22
2022-10-09T13:07:22.070Z,4.60
2022-10-09T13:09:35.345Z,4.85
2022-10-09T13:11:41.573Z,5.60
2022-10-09T13:13:49.176Z,3.88
2022-10-09T13:16:08.890Z,3.50
2022-10-09T13:18:24.793Z,5.70
2022-10-09T13:20:31.605Z,2.47
2022-10-09T13:22:35.954Z,6.32
2022-10-09T13:24:38.604Z,8.05
2022-10-09T13:26:44.555Z,8.30
2022-10-09T13:28:47.128Z,3.88
2022-10-09T13:30:49.994Z,4.10
2022-10-09T13:32:52.452Z,2.28
2022-10-09T13:34:55.544Z,3.97
2022-10-09T13:36:58.075Z,6.10
2022-10-09T13:39:00.436Z,4.38
2022-10-09T13:41:03.032Z,4.55
2022-10-09T13:43:06.583Z,4.45
2022-10-09T13:45:11.256Z,4.03
2022-10-09T13:47:13.923Z,4.68
2022-10-09T13:49:16.636Z,6.53
2022-10-09T13:51:19.234Z,5.25
2022-10-09T13:53:22.154Z,3.72
2022-10-09T13:55:24.624Z,4.60
2022-10-09T13:57:27.504Z,4.05
2022-10-09T13:59:32.666Z,3.88
2022-10-09T14:01:35.355Z,6.03
2022-10-09T14:03:38.204Z,3.50
2022-10-09T14:05:41.256Z,3.78
2022-10-09T14:07:44.137Z,1.30
2022-10-09T14:09:46.566Z,4.80
2022-10-09T14:11:49.442Z,3.97
2022-10-09T14:13:52.272Z,5.60
2022-10-09T14:15:54.842Z,4.80
2022-10-09T14:17:57.412Z,7.25
2022-10-09T14:19:59.943Z,6.55
2022-10-09T14:22:02.404Z,1.83
2022-10-09T14:24:05.667Z,1.35
2022-10-09T14:26:08.435Z,5.75
2022-10-09T14:28:10.950Z,4.53
2022-10-09T14:30:13.756Z,4.88
2022-10-09T14:32:16.366Z,7.80
2022-10-09T14:34:19.002Z,2.50
2022-10-09T14:36:21.686Z,2.65
2022-10-09T14:38:24.313Z,5.82
2022-10-09T14:40:26.933Z,8.52
2022-10-09T14:42:29.806Z,3.03
2022-10-09T14:44:32.218Z,2.63
2022-10-09T14:46:38.005Z,1.35
2022-10-09T14:48:41.654Z,4.13
2022-10-09T14:50:44.392Z,6.07
2022-10-09T14:52:46.965Z,13.98
2022-10-09T14:54:49.617Z,4.47
2022-10-09T14:56:52.404Z,3.20
2022-10-09T14:58:55.363Z,12.57
2022-10-09T15:00:58.318Z,2.45
2022-10-09T15:03:08.325Z,22.15
2022-10-09T15:05:11.162Z,4.22
2022-10-09T15:07:13.824Z,2.60
2022-10-09T15:09:16.553Z,38.85
2022-10-09T15:11:18.965Z,13.50
2022-10-09T15:13:21.732Z,3.97
2022-10-09T15:15:26.151Z,8.15
2022-10-09T15:17:30.553Z,3.47
2022-10-09T15:19:33.215Z,3.70
2022-10-09T15:21:36.384Z,2.08
2022-10-09T15:23:38.985Z,12.35
2022-10-09T15:25:57.304Z,9.40
2022-10-09T15:28:03.176Z,7.65
2022-10-09T15:30:06.244Z,2.47
2022-10-09T15:32:08.757Z,8.35
2022-10-09T15:34:17.063Z,5.10
2022-10-09T15:36:23.281Z,12.93
2022-10-09T15:38:26.562Z,4.63
2022-10-09T15:40:29.374Z,5.80
2022-10-09T15:42:31.813Z,8.10
2022-10-09T15:44:34.672Z,5.05
2022-10-09T15:46:37.554Z,4.85
2022-10-09T15:48:40.322Z,2.72
2022-10-09T15:50:46.152Z,5.25
2022-10-09T15:52:48.985Z,3.50
2022-10-09T15:54:51.854Z,5.95
2022-10-09T15:56:55.004Z,8.07
2022-10-09T15:58:58.464Z,12.18
2022-10-09T16:01:06.701Z,5.35
2022-10-09T16:03:09.744Z,8.73
2022-10-09T16:05:12.482Z,8.43
2022-10-09T16:07:15.152Z,4.90
2022-10-09T16:09:17.704Z,11.20
2022-10-09T16:11:23.392Z,7.28
2022-10-09T16:13:28.763Z,8.38
2022-10-09T16:15:31.395Z,6.80
2022-10-09T16:17:33.792Z,7.40
2022-10-09T16:19:36.518Z,16.67
2022-10-09T16:21:43.732Z,30.05
2022-10-09T16:23:50.743Z,19.25
2022-10-09T16:26:01.663Z,23.27
2022-10-09T16:28:06.882Z,21.52
2022-10-09T16:30:13.655Z,22.05
2022-10-09T16:32:19.643Z,31.05
2022-10-09T16:34:22.404Z,42.97
2022-10-09T16:36:27.494Z,89.03
2022-10-09T16:38:29.962Z,87.63
2022-10-09T16:40:57.458Z,61.05
2022-10-09T16:42:56.184Z,25.27
2022-10-09T16:44:59.202Z,24.58
2022-10-09T16:47:03.147Z,14.05
2022-10-09T16:49:07.712Z,16.85
2022-10-09T16:51:18.672Z,39.70
2022-10-09T16:53:22.181Z,21.80
2022-10-09T16:55:26.475Z,24.70
2022-10-09T16:57:30.524Z,13.45
2022-10-09T16:59:34.314Z,10.38
2022-10-09T17:01:40.713Z,11.93
2022-10-09T17:03:43.273Z,10.98
2022-10-09T17:05:45.824Z,18.65
2022-10-09T17:07:48.540Z,21.20
2022-10-09T17:09:52.618Z,26.73
2022-10-09T17:11:55.243Z,19.30
2022-10-09T17:14:00.023Z,15.07
2022-10-09T17:16:06.215Z,22.35
2022-10-09T17:18:09.214Z,17.10
2022-10-09T17:20:13.404Z,15.25
2022-10-09T17:22:16.294Z,22.05
2022-10-09T17:24:19.933Z,20.00
2022-10-09T17:26:25.595Z,16.95
2022-10-09T17:28:28.652Z,19.58
2022-10-09T17:30:32.833Z,21.95
2022-10-09T17:32:39.305Z,28.67
2022-10-09T17:34:46.087Z,18.92
2022-10-09T17:36:51.365Z,21.55
2022-10-09T17:38:55.119Z,20.27
2022-10-09T17:40:58.112Z,24.15
2022-10-09T17:43:01.094Z,19.58
2022-10-09T17:45:03.836Z,24.33
2022-10-09T17:47:06.562Z,25.42
2022-10-09T17:49:11.072Z,26.25
2022-10-09T17:51:19.992Z,32.78
2022-10-09T17:53:23.612Z,26.98
2022-10-09T17:55:26.605Z,29.17
2022-10-09T17:57:29.892Z,32.40
2022-10-09T17:59:34.264Z,29.27
2022-10-09T18:01:41.624Z,30.63
2022-10-09T18:03:44.998Z,41.97
2022-10-09T18:05:54.652Z,30.50
2022-10-09T18:07:58.283Z,33.92
2022-10-09T18:10:01.775Z,40.03
2022-10-09T18:12:06.263Z,34.33
2022-10-09T18:14:10.148Z,35.95
2022-10-09T18:16:18.521Z,40.65
2022-10-09T18:18:25.365Z,44.25
2022-10-09T18:20:31.324Z,40.38
2022-10-09T18:22:36.443Z,41.10
2022-10-09T18:24:39.255Z,43.83
2022-10-09T18:26:43.492Z,35.60
2022-10-09T18:28:48.639Z,47.45
2022-10-09T18:30:51.404Z,49.20
2022-10-09T18:32:56.374Z,52.70
2022-10-09T18:34:59.824Z,38.97
2022-10-09T18:37:03.214Z,42.53
2022-10-09T18:39:10.655Z,55.15
2022-10-09T18:41:14.825Z,42.05
2022-10-09T18:43:17.296Z,41.40
2022-10-09T18:45:23.224Z,46.97
2022-10-09T18:47:29.475Z,49.78
2022-10-09T18:49:32.904Z,41.10
2022-10-09T18:51:36.974Z,47.70
2022-10-09T18:53:45.264Z,43.00
2022-10-09T18:55:47.926Z,37.22
2022-10-09T18:57:50.495Z,45.83
2022-10-09T18:59:54.715Z,56.60
2022-10-09T19:01:57.453Z,53.75
2022-10-09T19:04:00.042Z,53.70
2022-10-09T19:06:02.864Z,53.00
2022-10-09T19:08:05.475Z,47.88
2022-10-09T19:10:09.044Z,47.03
2022-10-09T19:12:11.632Z,50.78
2022-10-09T19:14:16.616Z,52.35
2022-10-09T19:16:19.294Z,65.47
2022-10-09T19:18:23.413Z,58.75
2022-10-09T19:20:29.183Z,62.45
2022-10-09T19:22:32.562Z,42.72
2022-10-09T19:24:35.323Z,61.45
2022-10-09T19:26:38.185Z,64.25
2022-10-09T19:28:42.169Z,76.68
2022-10-09T19:30:45.562Z,61.38
2022-10-09T19:32:48.466Z,56.92
2022-10-09T19:34:51.516Z,54.45
2022-10-09T19:36:54.135Z,62.00
2022-10-09T19:38:56.614Z,55.53
2022-10-09T19:41:07.583Z,52.03
2022-10-09T19:43:10.443Z,57.95
2022-10-09T19:45:12.833Z,56.30
2022-10-09T19:47:17.286Z,55.67
2022-10-09T19:49:19.994Z,54.33
2022-10-09T19:51:25.945Z,52.53
2022-10-09T19:53:29.333Z,58.35
2022-10-09T19:55:34.723Z,57.55
2022-10-09T19:57:38.025Z,64.22
2022-10-09T19:59:40.655Z,51.95
2022-10-09T20:01:43.064Z,56.13
2022-10-09T20:03:46.604Z,66.68
2022-10-09T20:05:50.651Z,56.92
2022-10-09T20:07:53.068Z,69.78
2022-10-09T20:09:55.734Z,57.88
2022-10-09T20:11:59.517Z,57.38
2022-10-09T20:14:02.674Z,63.92
2022-10-09T20:16:08.262Z,67.40
2022-10-09T20:18:11.362Z,69.93
2022-10-09T20:20:14.534Z,71.07
2022-10-09T20:22:17.345Z,73.03
2022-10-09T20:24:20.604Z,68.25
2022-10-09T20:26:24.116Z,69.30
2022-10-09T20:28:26.787Z,69.03
2022-10-09T20:30:29.555Z,77.18
2022-10-09T20:32:33.944Z,74.43
2022-10-09T20:34:36.523Z,65.03
2022-10-09T20:36:40.035Z,73.97
2022-10-09T20:38:43.083Z,70.65
2022-10-09T20:40:46.183Z,69.65
2022-10-09T20:42:49.561Z,80.38
2022-10-09T20:44:52.526Z,74.75
2022-10-09T20:46:57.374Z,78.03
2022-10-09T20:49:00.502Z,63.63
2022-10-09T20:51:03.857Z,74.78
2022-10-09T20:53:07.515Z,74.25
2022-10-09T20:55:10.248Z,77.53
2022-10-09T20:57:12.694Z,90.10
2022-10-09T20:59:16.074Z,76.13
2022-10-09T21:01:19.535Z,81.18
2022-10-09T21:03:23.062Z,76.15
2022-10-09T21:05:25.715Z,74.43
2022-10-09T21:07:28.272Z,77.60
2022-10-09T21:09:33.395Z,74.35
2022-10-09T21:11:36.113Z,75.93
2022-10-09T21:13:39.724Z,79.68
2022-10-09T21:15:46.392Z,73.78
2022-10-09T21:17:49.470Z,77.03
2022-10-09T21:19:52.972Z,78.63
2022-10-09T21:21:55.533Z,80.70
2022-10-09T21:23:59.872Z,74.05
2022-10-09T21:26:02.932Z,74.60
2022-10-09T21:28:06.424Z,72.40
2022-10-09T21:30:09.524Z,73.22
2022-10-09T21:32:12.292Z,75.90
2022-10-09T21:34:15.134Z,72.55
2022-10-09T21:37:19.732Z,83.38
2022-10-09T21:39:12.214Z,74.53
2022-10-09T21:41:14.749Z,76.40
2022-10-09T21:43:18.243Z,79.57
2022-10-09T21:45:21.535Z,68.68
2022-10-09T21:47:24.264Z,78.53
2022-10-09T21:49:28.563Z,76.93
2022-10-09T21:51:31.482Z,69.70
2022-10-09T21:53:33.843Z,70.38
2022-10-09T21:55:38.342Z,82.90
2022-10-09T21:57:43.973Z,70.97
2022-10-09T21:59:48.354Z,70.20
2022-10-09T22:01:50.962Z,71.53
2022-10-09T22:03:54.326Z,65.05
2022-10-09T22:05:57.304Z,64.95
2022-10-09T22:07:59.832Z,72.18
2022-10-09T22:10:03.314Z,69.18
2022-10-09T22:12:06.264Z,82.18
2022-10-09T22:14:08.884Z,69.03
2022-10-09T22:16:14.392Z,69.38
2022-10-09T22:18:17.116Z,77.88
2022-10-09T22:20:19.644Z,75.30
2022-10-09T22:22:24.348Z,84.50
2022-10-09T22:24:29.172Z,81.07
2022-10-09T22:26:32.243Z,80.88
2022-10-09T22:28:35.709Z,67.80
2022-10-09T22:30:38.289Z,82.80
2022-10-09T22:32:41.664Z,69.38
2022-10-09T22:34:44.074Z,74.97
2022-10-09T22:36:47.103Z,67.38
2022-10-09T22:38:49.582Z,71.40
2022-10-09T22:40:52.105Z,71.22
2022-10-09T22:42:54.615Z,64.95
2022-10-09T22:44:57.152Z,67.25
2022-10-09T22:46:59.674Z,73.20
2022-10-09T22:49:02.233Z,71.28
2022-10-09T22:51:07.347Z,66.07
2022-10-09T22:53:09.965Z,70.00
2022-10-09T22:55:13.852Z,62.42
2022-10-09T22:57:16.944Z,58.50
2022-10-09T22:59:19.962Z,69.03
2022-10-09T23:01:46.116Z,76.28
2022-10-09T23:03:49.064Z,65.72
2022-10-09T23:05:52.044Z,65.32
2022-10-09T23:07:54.573Z,69.07
2022-10-09T23:09:57.133Z,70.72
2022-10-09T23:12:00.714Z,63.22
2022-10-09T23:14:05.142Z,71.72
2022-10-09T23:16:10.844Z,60.72
2022-10-09T23:18:13.442Z,70.50
2022-10-09T23:20:16.054Z,63.30
2022-10-09T23:22:18.565Z,65.80
2022-10-09T23:24:21.107Z,67.97
2022-10-09T23:26:30.005Z,67.63
2022-10-09T23:28:32.728Z,76.63
2022-10-09T23:30:35.204Z,60.70
2022-10-09T23:32:38.015Z,75.88
2022-10-09T23:34:40.495Z,67.13
2022-10-09T23:36:43.175Z,65.32
2022-10-09T23:38:46.502Z,74.05
2022-10-09T23:41:17.423Z,80.07
2022-10-09T23:43:19.992Z,82.05
2022-10-09T23:45:22.584Z,73.60
2022-10-09T23:47:25.225Z,66.00
2022-10-09T23:49:27.873Z,69.40
2022-10-09T23:51:31.094Z,80.90
2022-10-09T23:53:34.526Z,89.63
2022-10-09T23:55:37.394Z,75.78
2022-10-09T23:57:39.906Z,72.25
2022-10-09T23:59:42.653Z,66.00
